createdAt,value
2023-04-04T00:01:29.927Z,2.40
2023-04-04T00:03:57.613Z,2.30
2023-04-04T00:06:24.387Z,2.20
2023-04-04T00:08:50.859Z,2.30
2023-04-04T00:11:17.302Z,2.25
2023-04-04T00:13:48.626Z,2.33
2023-04-04T00:16:15.239Z,2.40
2023-04-04T00:18:41.701Z,2.50
2023-04-04T00:21:08.170Z,2.65
2023-04-04T00:23:34.482Z,2.55
2023-04-04T00:26:01.409Z,2.53
2023-04-04T00:28:27.785Z,2.30
2023-04-04T00:30:54.743Z,2.30
2023-04-04T00:33:21.638Z,2.40
2023-04-04T00:35:48.995Z,2.40
2023-04-04T00:38:15.479Z,2.22
2023-04-04T00:40:47.752Z,2.30
2023-04-04T00:43:14.543Z,2.17
2023-04-04T00:45:41.357Z,2.22
2023-04-04T00:48:10.369Z,2.38
2023-04-04T00:50:36.901Z,2.58
2023-04-04T00:53:03.375Z,1.95
2023-04-04T00:55:29.830Z,1.90
2023-04-04T00:57:56.385Z,2.33
2023-04-04T01:00:22.822Z,2.30
2023-04-04T01:02:52.080Z,2.42
2023-04-04T01:05:18.588Z,2.45
2023-04-04T01:07:44.965Z,2.40
2023-04-04T01:10:11.902Z,2.38
2023-04-04T01:12:39.610Z,2.30
2023-04-04T01:15:06.159Z,2.22
2023-04-04T01:17:32.555Z,2.20
2023-04-04T01:20:09.018Z,2.10
2023-04-04T01:22:35.924Z,1.90
2023-04-04T01:25:04.445Z,2.30
2023-04-04T01:27:31.460Z,2.17
2023-04-04T01:30:00.421Z,2.40
2023-04-04T01:32:44.406Z,2.40
2023-04-04T01:35:21.301Z,2.03
2023-04-04T01:37:47.706Z,2.20
2023-04-04T01:40:21.368Z,2.10
2023-04-04T01:42:49.212Z,2.20
2023-04-04T01:45:15.637Z,2.17
2023-04-04T01:47:42.297Z,2.40
2023-04-04T01:50:09.467Z,2.40
2023-04-04T01:52:38.506Z,2.20
2023-04-04T01:55:05.154Z,2.33
2023-04-04T01:57:31.542Z,1.95
2023-04-04T01:59:57.932Z,2.45
2023-04-04T02:02:24.392Z,2.80
2023-04-04T02:04:50.790Z,2.22
2023-04-04T02:07:17.141Z,2.28
2023-04-04T02:09:43.522Z,2.38
2023-04-04T02:12:09.899Z,2.45
2023-04-04T02:14:38.663Z,2.15
2023-04-04T02:17:05.024Z,2.05
2023-04-04T02:19:32.140Z,2.38
2023-04-04T02:21:58.460Z,2.20
2023-04-04T02:24:24.907Z,2.38
2023-04-04T02:26:51.598Z,2.67
2023-04-04T02:29:17.988Z,2.25
2023-04-04T02:31:44.355Z,2.03
2023-04-04T02:34:10.769Z,2.20
2023-04-04T02:36:37.494Z,2.50
2023-04-04T02:39:06.305Z,2.55
2023-04-04T02:41:32.659Z,2.05
2023-04-04T02:43:59.023Z,2.05
2023-04-04T02:46:25.540Z,2.60
2023-04-04T02:48:52.098Z,2.38
2023-04-04T02:51:21.359Z,2.80
2023-04-04T02:53:47.785Z,2.45
2023-04-04T02:56:16.409Z,2.30
2023-04-04T02:58:43.270Z,2.55
2023-04-04T03:01:15.118Z,2.55
2023-04-04T03:03:41.638Z,2.63
2023-04-04T03:06:08.147Z,2.60
2023-04-04T03:08:35.737Z,2.53
2023-04-04T03:11:04.484Z,2.85
2023-04-04T03:13:30.911Z,2.42
2023-04-04T03:16:06.214Z,4.32
2023-04-04T03:18:34.652Z,4.53
2023-04-04T03:21:01.173Z,4.10
2023-04-04T03:23:29.902Z,4.20
2023-04-04T03:25:58.720Z,3.78
2023-04-04T03:28:25.095Z,2.95
2023-04-04T03:30:53.857Z,3.08
2023-04-04T03:33:21.766Z,3.08
2023-04-04T03:35:48.201Z,3.00
2023-04-04T03:38:14.604Z,3.38
2023-04-04T03:40:42.059Z,3.15
2023-04-04T03:43:08.690Z,2.85
2023-04-04T03:45:35.861Z,3.05
2023-04-04T03:48:02.632Z,2.80
2023-04-04T03:50:29.377Z,2.92
2023-04-04T03:52:55.757Z,2.80
2023-04-04T03:55:22.095Z,2.97
2023-04-04T03:57:48.617Z,2.88
2023-04-04T04:00:15.356Z,2.78
2023-04-04T04:02:41.948Z,2.70
2023-04-04T04:05:09.292Z,2.50
2023-04-04T04:07:35.816Z,2.65
2023-04-04T04:10:05.524Z,2.85
2023-04-04T04:12:34.446Z,2.72
2023-04-04T04:15:00.906Z,2.75
2023-04-04T04:17:27.721Z,3.10
2023-04-04T04:19:54.106Z,2.78
2023-04-04T04:22:20.434Z,2.90
2023-04-04T04:24:46.793Z,3.00
2023-04-04T04:27:13.130Z,2.90
2023-04-04T04:29:39.614Z,3.22
2023-04-04T04:32:06.604Z,2.60
2023-04-04T04:34:33.035Z,3.00
2023-04-04T04:36:59.387Z,3.15
2023-04-04T04:39:25.737Z,3.40
2023-04-04T04:41:54.905Z,2.88
2023-04-04T04:44:21.378Z,3.00
2023-04-04T04:46:47.814Z,3.67
2023-04-04T04:49:14.251Z,3.80
2023-04-04T04:51:42.429Z,3.53
2023-04-04T04:54:08.834Z,3.83
2023-04-04T04:56:35.192Z,4.97
2023-04-04T04:59:01.613Z,4.47
2023-04-04T05:01:28.148Z,4.97
2023-04-04T05:03:54.617Z,4.75
2023-04-04T05:06:21.544Z,4.28
2023-04-04T05:08:48.015Z,4.13
2023-04-04T05:11:14.378Z,3.58
2023-04-04T05:13:41.022Z,4.20
2023-04-04T05:16:07.678Z,4.72
2023-04-04T05:18:34.078Z,4.53
2023-04-04T05:21:00.446Z,4.60
2023-04-04T05:23:27.264Z,4.20
2023-04-04T05:25:53.708Z,3.85
2023-04-04T05:28:20.894Z,3.28
2023-04-04T05:30:47.490Z,3.22
2023-04-04T05:33:13.903Z,4.35
2023-04-04T05:35:41.342Z,7.93
2023-04-04T05:38:07.821Z,6.07
2023-04-04T05:40:36.858Z,5.53
2023-04-04T05:43:04.342Z,5.28
2023-04-04T05:45:31.563Z,5.70
2023-04-04T05:48:00.095Z,6.93
2023-04-04T05:50:29.392Z,5.93
2023-04-04T05:52:55.959Z,5.70
2023-04-04T05:55:22.450Z,5.63
2023-04-04T05:57:51.348Z,5.82
2023-04-04T06:00:18.464Z,5.30
2023-04-04T06:02:45.050Z,4.85
2023-04-04T06:05:11.723Z,4.95
2023-04-04T06:07:38.133Z,5.00
2023-04-04T06:10:04.924Z,4.57
2023-04-04T06:12:31.313Z,4.82
2023-04-04T06:14:57.651Z,4.97
2023-04-04T06:17:24.535Z,5.15
2023-04-04T06:19:55.461Z,5.45
2023-04-04T06:22:21.933Z,5.03
2023-04-04T06:24:48.340Z,4.28
2023-04-04T06:27:14.902Z,4.43
2023-04-04T06:29:41.597Z,4.20
2023-04-04T06:32:08.051Z,3.70
2023-04-04T06:34:34.457Z,4.13
2023-04-04T06:37:00.959Z,3.33
2023-04-04T06:39:27.564Z,4.13
2023-04-04T06:41:54.095Z,3.58
2023-04-04T06:44:20.475Z,3.38
2023-04-04T06:46:47.883Z,3.40
2023-04-04T06:49:14.306Z,3.50
2023-04-04T06:51:41.700Z,3.40
2023-04-04T06:54:08.611Z,3.85
2023-04-04T06:56:34.991Z,3.42
2023-04-04T06:59:01.523Z,3.97
2023-04-04T07:01:27.951Z,3.50
2023-04-04T07:03:54.604Z,3.20
2023-04-04T07:06:25.926Z,3.38
2023-04-04T07:08:52.525Z,3.30
2023-04-04T07:11:19.024Z,3.13
2023-04-04T07:13:45.387Z,3.05
2023-04-04T07:16:12.022Z,3.00
2023-04-04T07:18:38.496Z,3.08
2023-04-04T07:21:05.381Z,3.00
2023-04-04T07:23:34.185Z,3.10
2023-04-04T07:26:00.561Z,3.70
2023-04-04T07:28:27.052Z,3.00
2023-04-04T07:30:53.448Z,3.00
2023-04-04T07:33:19.870Z,3.03
2023-04-04T07:35:49.179Z,2.72
2023-04-04T07:38:18.900Z,2.92
2023-04-04T07:40:45.407Z,2.58
2023-04-04T07:43:12.045Z,2.35
2023-04-04T07:45:40.555Z,2.80
2023-04-04T07:48:06.921Z,2.67
2023-04-04T07:50:35.857Z,2.50
2023-04-04T07:53:02.493Z,2.50
2023-04-04T07:55:29.011Z,2.80
2023-04-04T07:57:55.362Z,2.95
2023-04-04T08:00:22.693Z,2.80
2023-04-04T08:02:53.591Z,2.78
2023-04-04T08:05:20.353Z,3.00
2023-04-04T08:07:47.300Z,3.42
2023-04-04T08:10:17.429Z,3.35
2023-04-04T08:12:44.928Z,2.95
2023-04-04T08:15:12.050Z,2.72
2023-04-04T08:17:38.508Z,3.13
2023-04-04T08:20:05.342Z,3.00
2023-04-04T08:22:31.850Z,3.35
2023-04-04T08:24:58.300Z,3.30
2023-04-04T08:27:24.645Z,3.45
2023-04-04T08:29:50.998Z,3.28
2023-04-04T08:32:17.595Z,3.00
2023-04-04T08:34:43.987Z,3.17
2023-04-04T08:37:11.360Z,2.80
2023-04-04T08:39:38.084Z,3.40
2023-04-04T08:42:05.621Z,3.20
2023-04-04T08:44:33.639Z,2.80
2023-04-04T08:47:03.341Z,3.10
2023-04-04T08:49:30.065Z,3.08
2023-04-04T08:51:56.800Z,3.15
2023-04-04T08:54:24.781Z,3.10
2023-04-04T08:56:53.625Z,3.00
2023-04-04T08:59:21.146Z,3.45
2023-04-04T09:01:47.684Z,2.88
2023-04-04T09:04:14.061Z,3.10
2023-04-04T09:06:40.788Z,3.53
2023-04-04T09:09:07.491Z,2.97
2023-04-04T09:11:35.082Z,3.47
2023-04-04T09:14:04.420Z,2.90
2023-04-04T09:16:31.143Z,2.50
2023-04-04T09:18:59.902Z,3.10
2023-04-04T09:21:27.058Z,2.60
2023-04-04T09:24:00.378Z,2.85
2023-04-04T09:26:29.118Z,3.13
2023-04-04T09:28:55.640Z,2.97
2023-04-04T09:31:24.375Z,3.22
2023-04-04T09:33:53.324Z,3.00
2023-04-04T09:36:19.885Z,2.70
2023-04-04T09:38:49.341Z,2.78
2023-04-04T09:41:16.492Z,2.28
2023-04-04T09:43:44.976Z,2.00
2023-04-04T09:46:11.362Z,2.70
2023-04-04T09:48:37.995Z,4.32
2023-04-04T09:51:05.536Z,3.67
2023-04-04T09:53:34.107Z,2.33
2023-04-04T09:56:00.569Z,2.22
2023-04-04T09:58:28.050Z,2.08
2023-04-04T10:00:56.151Z,1.80
2023-04-04T10:03:26.254Z,17.33
2023-04-04T10:06:11.062Z,5.60
2023-04-04T10:08:39.595Z,2.10
2023-04-04T10:11:11.953Z,10.82
2023-04-04T10:13:44.482Z,7.57
2023-04-04T10:16:11.864Z,2.85
2023-04-04T10:18:39.178Z,1.98
2023-04-04T10:23:36.959Z,2.33
2023-04-04T10:26:03.332Z,2.30
2023-04-04T10:28:29.968Z,2.10
2023-04-04T10:31:07.117Z,2.33
2023-04-04T10:33:52.777Z,1.67
2023-04-04T10:36:27.964Z,2.10
2023-04-04T10:39:13.082Z,2.17
2023-04-04T10:41:42.251Z,2.50
2023-04-04T10:44:19.604Z,2.15
2023-04-04T10:46:47.150Z,2.15
2023-04-04T10:49:14.931Z,2.25
2023-04-04T10:51:54.997Z,2.17
2023-04-04T10:54:23.317Z,1.98
2023-04-04T10:56:49.863Z,2.03
2023-04-04T10:59:17.333Z,2.22
2023-04-04T11:01:49.836Z,2.30
2023-04-04T11:04:20.283Z,2.28
2023-04-04T11:07:06.374Z,2.40
2023-04-04T11:09:51.812Z,2.65
2023-04-04T11:12:23.517Z,2.15
2023-04-04T11:14:56.687Z,2.40
2023-04-04T11:17:41.370Z,2.70
2023-04-04T11:20:08.699Z,3.17
2023-04-04T11:22:38.334Z,2.28
2023-04-04T11:25:23.750Z,2.42
2023-04-04T11:27:53.441Z,2.70
2023-04-04T11:30:20.363Z,2.38
2023-04-04T11:32:59.829Z,2.45
2023-04-04T11:35:30.613Z,2.70
2023-04-04T11:37:56.994Z,2.22
2023-04-04T11:40:42.669Z,2.75
2023-04-04T11:43:09.958Z,2.65
2023-04-04T11:45:37.515Z,2.60
2023-04-04T11:48:05.932Z,2.67
2023-04-04T11:50:39.657Z,2.80
2023-04-04T11:53:07.184Z,4.03
2023-04-04T11:55:33.603Z,2.30
2023-04-04T11:58:13.344Z,2.60
2023-04-04T12:00:41.494Z,3.00
2023-04-04T12:03:10.881Z,2.80
2023-04-04T12:05:42.016Z,2.70
2023-04-04T12:08:10.222Z,2.90
2023-04-04T12:10:37.594Z,4.72
2023-04-04T12:13:08.102Z,3.78
2023-04-04T12:15:38.136Z,3.42
2023-04-04T12:18:07.987Z,3.78
2023-04-04T12:20:41.032Z,4.85
2023-04-04T12:23:07.466Z,3.38
2023-04-04T12:25:34.186Z,2.30
2023-04-04T12:28:01.881Z,2.80
2023-04-04T12:30:28.373Z,2.38
2023-04-04T12:32:54.875Z,2.53
2023-04-04T12:35:21.358Z,2.50
2023-04-04T12:38:04.092Z,2.60
2023-04-04T12:40:37.150Z,2.55
2023-04-04T12:43:07.556Z,2.28
2023-04-04T12:45:38.102Z,2.45
2023-04-04T12:48:09.815Z,2.65
2023-04-04T12:50:50.782Z,2.15
2023-04-04T12:58:18.225Z,2.40
2023-04-04T13:00:47.066Z,2.60
2023-04-04T13:03:15.489Z,2.35
2023-04-04T13:05:47.311Z,2.28
2023-04-04T13:08:13.860Z,2.88
2023-04-04T13:10:56.860Z,2.40
2023-04-04T13:13:33.547Z,2.20
2023-04-04T13:16:00.028Z,2.53
2023-04-04T13:18:32.217Z,2.67
2023-04-04T13:20:58.669Z,2.42
2023-04-04T13:23:27.612Z,2.60
2023-04-04T13:25:54.351Z,2.30
2023-04-04T13:28:21.353Z,2.25
2023-04-04T13:30:49.645Z,2.80
2023-04-04T13:33:16.890Z,2.40
2023-04-04T13:35:46.322Z,2.53
2023-04-04T13:38:15.240Z,2.50
2023-04-04T13:40:41.801Z,2.95
2023-04-04T13:43:08.688Z,2.78
2023-04-04T13:45:35.510Z,2.67
2023-04-04T13:48:02.177Z,2.90
2023-04-04T13:50:28.790Z,2.58
2023-04-04T13:52:56.581Z,2.33
2023-04-04T13:55:23.305Z,2.33
2023-04-04T13:57:49.677Z,2.45
2023-04-04T14:00:19.252Z,2.90
2023-04-04T14:02:45.687Z,2.65
2023-04-04T14:05:14.603Z,2.45
2023-04-04T14:07:41.076Z,2.95
2023-04-04T14:10:08.007Z,2.90
2023-04-04T14:12:34.390Z,2.67
2023-04-04T14:15:00.820Z,3.92
2023-04-04T14:17:32.131Z,5.10
2023-04-04T14:19:58.491Z,2.90
2023-04-04T14:22:25.343Z,3.10
2023-04-04T14:24:51.758Z,2.65
2023-04-04T14:27:18.199Z,2.90
2023-04-04T14:29:44.607Z,2.65
2023-04-04T14:32:11.464Z,2.67
2023-04-04T14:34:40.467Z,2.67
2023-04-04T14:37:07.186Z,2.67
2023-04-04T14:39:33.599Z,2.80
2023-04-04T14:42:00.528Z,2.53
2023-04-04T14:44:27.470Z,2.35
2023-04-04T14:46:54.025Z,2.88
2023-04-04T14:49:20.714Z,2.67
2023-04-04T14:51:47.434Z,2.58
2023-04-04T14:54:13.862Z,2.55
2023-04-04T14:56:42.660Z,2.60
2023-04-04T14:59:09.073Z,2.80
2023-04-04T15:01:35.862Z,2.63
2023-04-04T15:04:02.523Z,2.58
2023-04-04T15:06:31.938Z,2.30
2023-04-04T15:08:58.473Z,2.30
2023-04-04T15:11:27.021Z,2.88
2023-04-04T15:13:53.414Z,2.55
2023-04-04T15:16:19.951Z,2.45
2023-04-04T15:18:46.436Z,2.70
2023-04-04T15:21:12.855Z,3.35
2023-04-04T15:23:39.313Z,2.70
2023-04-04T15:26:06.381Z,2.58
2023-04-04T15:28:33.166Z,2.33
2023-04-04T15:31:03.184Z,2.60
2023-04-04T15:33:29.702Z,2.53
2023-04-04T15:35:56.161Z,3.08
2023-04-04T15:38:22.648Z,2.30
2023-04-04T15:40:49.198Z,2.90
2023-04-04T15:43:15.673Z,3.17
2023-04-04T15:45:42.148Z,2.90
2023-04-04T15:48:11.360Z,2.33
2023-04-04T15:50:37.822Z,2.60
2023-04-04T15:53:05.537Z,2.55
2023-04-04T15:55:32.129Z,2.45
2023-04-04T15:57:59.057Z,2.47
2023-04-04T16:00:28.274Z,2.60
2023-04-04T16:02:57.051Z,2.42
2023-04-04T16:05:27.189Z,2.70
2023-04-04T16:07:53.719Z,4.43
2023-04-04T16:10:20.071Z,7.50
2023-04-04T16:12:46.512Z,5.63
2023-04-04T16:15:13.469Z,2.67
2023-04-04T16:17:42.435Z,2.70
2023-04-04T16:20:09.696Z,2.63
2023-04-04T16:22:36.229Z,3.10
2023-04-04T16:25:02.908Z,4.60
2023-04-04T16:27:29.290Z,10.20
2023-04-04T16:29:55.859Z,3.20
2023-04-04T16:32:22.493Z,3.60
2023-04-04T16:34:48.873Z,3.10
2023-04-04T16:37:16.446Z,2.88
2023-04-04T16:39:42.975Z,2.33
2023-04-04T16:42:09.404Z,2.50
2023-04-04T16:44:38.218Z,2.78
2023-04-04T16:47:04.693Z,3.42
2023-04-04T16:49:31.217Z,2.50
2023-04-04T16:51:58.060Z,3.22
2023-04-04T16:54:26.578Z,3.28
2023-04-04T16:56:53.033Z,2.88
2023-04-04T16:59:19.618Z,2.88
2023-04-04T17:01:48.990Z,3.10
2023-04-04T17:04:18.184Z,2.90
2023-04-04T17:06:44.674Z,3.45
2023-04-04T17:09:13.498Z,4.85
2023-04-04T17:11:44.585Z,3.90
2023-04-04T17:14:11.001Z,2.80
2023-04-04T17:16:37.543Z,2.95
2023-04-04T17:19:03.974Z,2.83
2023-04-04T17:21:33.409Z,2.63
2023-04-04T17:24:02.236Z,2.92
2023-04-04T17:26:28.591Z,3.70
2023-04-04T17:28:54.988Z,3.33
2023-04-04T17:31:21.814Z,3.53
2023-04-04T17:33:48.207Z,3.72
2023-04-04T17:36:14.736Z,3.90
2023-04-04T17:38:41.483Z,3.30
2023-04-04T17:41:08.211Z,2.58
2023-04-04T17:43:34.657Z,3.30
2023-04-04T17:46:02.746Z,3.03
2023-04-04T17:48:32.278Z,3.25
2023-04-04T17:50:59.326Z,3.25
2023-04-04T17:53:25.830Z,3.75
2023-04-04T17:55:54.655Z,3.60
2023-04-04T17:58:25.740Z,4.97
2023-04-04T18:00:52.944Z,5.90
2023-04-04T18:03:23.209Z,5.80
2023-04-04T18:05:49.950Z,6.38
2023-04-04T18:08:19.081Z,6.45
2023-04-04T18:10:48.457Z,8.38
2023-04-04T18:13:15.380Z,20.45
2023-04-04T18:15:41.968Z,11.45
2023-04-04T18:18:08.540Z,5.43
2023-04-04T18:20:35.894Z,5.60
2023-04-04T18:23:04.184Z,4.88
2023-04-04T18:25:36.379Z,4.80
2023-04-04T18:28:05.873Z,4.18
2023-04-04T18:30:34.920Z,4.82
2023-04-04T18:33:01.691Z,4.50
2023-04-04T18:35:28.184Z,6.15
2023-04-04T18:37:54.606Z,5.88
2023-04-04T18:40:21.143Z,4.85
2023-04-04T18:42:47.949Z,6.40
2023-04-04T18:45:15.740Z,5.65
2023-04-04T18:47:42.166Z,7.20
2023-04-04T18:50:08.832Z,4.47
2023-04-04T18:52:37.901Z,5.75
2023-04-04T18:55:04.764Z,6.13
2023-04-04T18:57:31.480Z,8.73
2023-04-04T18:59:57.948Z,8.65
2023-04-04T19:02:27.065Z,8.05
2023-04-04T19:04:55.068Z,7.20
2023-04-04T19:07:24.554Z,5.93
2023-04-04T19:09:51.488Z,5.28
2023-04-04T19:12:18.111Z,6.45
2023-04-04T19:14:44.477Z,4.85
2023-04-04T19:17:13.377Z,4.32
2023-04-04T19:19:43.313Z,3.85
2023-04-04T19:22:12.128Z,4.55
2023-04-04T19:24:40.428Z,6.20
2023-04-04T19:27:06.949Z,4.30
2023-04-04T19:29:34.842Z,3.47
2023-04-04T19:32:03.861Z,3.40
2023-04-04T19:34:31.705Z,5.20
2023-04-04T19:36:58.073Z,5.40
2023-04-04T19:39:29.177Z,5.28
2023-04-04T19:41:58.145Z,5.13
2023-04-04T19:44:24.836Z,4.63
2023-04-04T19:46:53.992Z,4.45
2023-04-04T19:49:27.833Z,3.95
2023-04-04T19:51:55.628Z,3.88
2023-04-04T19:54:24.437Z,4.47
2023-04-04T19:56:52.789Z,5.88
2023-04-04T19:59:37.991Z,9.20
2023-04-04T20:02:06.036Z,9.60
2023-04-04T20:04:32.512Z,9.38
2023-04-04T20:06:58.920Z,7.40
2023-04-04T20:09:31.192Z,8.52
2023-04-04T20:11:57.558Z,11.75
2023-04-04T20:14:24.345Z,11.52
2023-04-04T20:16:54.249Z,6.13
2023-04-04T20:19:24.660Z,4.60
2023-04-04T20:21:51.428Z,4.38
2023-04-04T20:24:20.909Z,4.30
2023-04-04T20:26:47.298Z,4.90
2023-04-04T20:29:14.658Z,4.40
2023-04-04T20:31:44.372Z,4.22
2023-04-04T20:34:29.600Z,4.28
2023-04-04T20:36:56.069Z,3.60
2023-04-04T20:39:41.511Z,4.22
2023-04-04T20:42:16.602Z,4.18
2023-04-04T20:44:42.929Z,4.10
2023-04-04T20:47:28.785Z,5.00
2023-04-04T20:49:55.328Z,5.90
2023-04-04T20:52:24.551Z,5.15
2023-04-04T20:54:51.037Z,5.40
2023-04-04T20:57:23.537Z,5.60
2023-04-04T20:59:49.960Z,5.03
2023-04-04T21:02:18.361Z,4.90
2023-04-04T21:04:45.714Z,5.10
2023-04-04T21:07:34.131Z,4.72
2023-04-04T21:10:00.727Z,8.38
2023-04-04T21:12:27.557Z,9.43
2023-04-04T21:14:54.544Z,8.23
2023-04-04T21:17:20.954Z,7.35
2023-04-04T21:19:47.354Z,6.00
2023-04-04T21:22:13.962Z,5.60
2023-04-04T21:24:40.313Z,4.70
2023-04-04T21:27:07.150Z,5.47
2023-04-04T21:29:33.610Z,4.53
2023-04-04T21:32:00.204Z,4.63
2023-04-04T21:34:29.501Z,4.60
2023-04-04T21:36:59.631Z,5.00
2023-04-04T21:39:29.480Z,5.18
2023-04-04T21:42:00.031Z,5.32
2023-04-04T21:44:26.505Z,9.57
2023-04-04T21:46:55.170Z,8.20
2023-04-04T21:49:21.867Z,7.72
2023-04-04T21:51:48.394Z,7.75
2023-04-04T21:54:14.952Z,8.57
2023-04-04T21:56:41.537Z,7.07
2023-04-04T21:59:09.120Z,7.18
2023-04-04T22:01:36.105Z,7.25
2023-04-04T22:04:02.635Z,7.38
2023-04-04T22:06:30.730Z,7.22
2023-04-04T22:08:57.824Z,7.50
2023-04-04T22:11:25.998Z,8.68
2023-04-04T22:14:03.191Z,8.52
2023-04-04T22:16:30.806Z,8.50
2023-04-04T22:18:57.454Z,8.50
2023-04-04T22:21:26.183Z,8.88
2023-04-04T22:23:53.893Z,7.95
2023-04-04T22:26:28.909Z,6.18
2023-04-04T22:28:56.844Z,7.32
2023-04-04T22:31:23.793Z,7.63
2023-04-04T22:33:50.483Z,6.90
2023-04-04T22:36:16.913Z,7.85
2023-04-04T22:38:43.439Z,6.72
2023-04-04T22:41:09.903Z,6.95
2023-04-04T22:43:36.231Z,6.10
2023-04-04T22:46:02.609Z,4.95
2023-04-04T22:48:30.743Z,5.20
2023-04-04T22:50:58.703Z,4.93
2023-04-04T22:53:25.430Z,5.07
2023-04-04T22:55:52.753Z,4.72
2023-04-04T22:58:19.994Z,5.00
2023-04-04T23:00:46.431Z,6.50
2023-04-04T23:03:12.849Z,4.88
2023-04-04T23:05:39.214Z,4.80
2023-04-04T23:08:05.915Z,4.45
2023-04-04T23:10:32.367Z,5.00
2023-04-04T23:12:58.734Z,4.50
2023-04-04T23:15:27.146Z,4.78
2023-04-04T23:17:53.583Z,4.80
2023-04-04T23:20:20.025Z,5.22
2023-04-04T23:22:46.818Z,5.00
2023-04-04T23:25:13.235Z,4.63
2023-04-04T23:27:40.187Z,4.55
2023-04-04T23:30:06.919Z,4.53
2023-04-04T23:32:35.942Z,4.93
2023-04-04T23:35:02.291Z,4.60
2023-04-04T23:37:28.947Z,4.75
2023-04-04T23:39:57.457Z,4.38
2023-04-04T23:42:23.905Z,4.68
2023-04-04T23:44:50.554Z,4.32
2023-04-04T23:47:16.949Z,4.38
2023-04-04T23:49:43.696Z,4.47
2023-04-04T23:52:10.196Z,4.20
2023-04-04T23:54:39.064Z,4.68
2023-04-04T23:57:05.710Z,4.45
2023-04-04T23:59:32.216Z,4.60
